createdAt,value
2022-10-26T00:01:10.654Z,77023.88
2022-10-26T00:03:38.364Z,77041.22
2022-10-26T00:06:10.772Z,77048.91
2022-10-26T00:08:37.800Z,77048.91
2022-10-26T00:11:04.952Z,77052.78
2022-10-26T00:13:31.961Z,77062.41
2022-10-26T00:18:27.015Z,77068.19
2022-10-26T00:20:53.684Z,77073.97
2022-10-26T00:23:20.396Z,77072.03
2022-10-26T00:25:55.562Z,77079.75
2022-10-26T00:28:22.573Z,77060.47
2022-10-26T00:30:49.305Z,77062.41
2022-10-26T00:33:16.046Z,77058.56
2022-10-26T00:35:45.969Z,77064.34
2022-10-26T00:38:13.418Z,77072.03
2022-10-26T00:40:40.165Z,77072.03
2022-10-26T00:43:33.701Z,77077.81
2022-10-26T00:46:02.929Z,77093.25
2022-10-26T00:48:34.751Z,77095.19
2022-10-26T00:51:05.965Z,77112.53
2022-10-26T00:53:33.100Z,77133.72
2022-10-26T00:56:01.062Z,77141.44
2022-10-26T00:58:28.401Z,77147.22
2022-10-26T01:00:55.142Z,77149.13
2022-10-26T01:03:25.307Z,77137.56
2022-10-26T01:05:55.741Z,77129.88
2022-10-26T01:08:22.941Z,77129.88
2022-10-26T01:10:49.933Z,77137.56
2022-10-26T01:13:18.448Z,77145.28
2022-10-26T01:15:56.864Z,77153.00
2022-10-26T01:18:45.547Z,77153.00
2022-10-26T01:21:30.977Z,77154.91
2022-10-26T01:24:14.263Z,77164.56
2022-10-26T01:26:46.860Z,77172.28
2022-10-26T01:29:22.571Z,77160.69
2022-10-26T01:32:14.114Z,77162.63
2022-10-26T01:34:54.653Z,77153.00
2022-10-26T01:37:30.785Z,77153.00
2022-10-26T01:40:09.210Z,77151.06
2022-10-26T01:42:40.708Z,77153.00
2022-10-26T01:45:09.871Z,77145.28
2022-10-26T01:47:39.221Z,77147.22
2022-10-26T01:50:07.629Z,77154.91
2022-10-26T01:52:34.730Z,77149.13
2022-10-26T01:55:05.053Z,77164.56
2022-10-26T01:57:35.172Z,77166.47
2022-10-26T02:00:09.682Z,77176.13
2022-10-26T02:03:15.130Z,77176.13
2022-10-26T02:06:00.255Z,77172.28
2022-10-26T02:08:45.951Z,77166.47
2022-10-26T02:11:38.995Z,77178.06
2022-10-26T02:14:24.786Z,77187.69
2022-10-26T02:17:06.125Z,77187.69
2022-10-26T02:19:36.777Z,77195.41
2022-10-26T02:22:23.571Z,77183.84
2022-10-26T02:24:52.672Z,77179.97
2022-10-26T02:27:27.610Z,77174.19
2022-10-26T02:29:56.433Z,77164.56
2022-10-26T02:32:27.254Z,77153.00
2022-10-26T02:34:56.682Z,77156.84
2022-10-26T02:37:25.061Z,77158.78
2022-10-26T02:39:54.811Z,77154.91
2022-10-26T02:42:25.100Z,77158.78
2022-10-26T02:44:57.933Z,77154.91
2022-10-26T02:47:26.317Z,77153.00
2022-10-26T02:49:54.930Z,77156.84
2022-10-26T02:52:24.210Z,77153.00
2022-10-26T02:54:56.130Z,77156.84
2022-10-26T02:57:39.832Z,77172.28
2022-10-26T03:00:12.792Z,77179.97
2022-10-26T03:02:42.395Z,77193.47
2022-10-26T03:05:17.386Z,77205.03
2022-10-26T03:07:43.965Z,77208.88
2022-10-26T03:10:11.178Z,77206.97
2022-10-26T03:12:37.815Z,77220.44
2022-10-26T03:15:05.037Z,77218.53
2022-10-26T03:17:31.647Z,77222.38
2022-10-26T03:19:58.290Z,77218.53
2022-10-26T03:22:24.917Z,77226.22
2022-10-26T03:24:51.588Z,77237.78
2022-10-26T03:27:18.240Z,77237.78
2022-10-26T03:29:44.842Z,77239.72
2022-10-26T03:32:11.501Z,77241.66
2022-10-26T03:34:38.174Z,77233.94
2022-10-26T03:37:04.802Z,77230.09
2022-10-26T03:39:31.482Z,77230.09
2022-10-26T03:41:58.089Z,77226.22
2022-10-26T03:44:25.063Z,77220.44
2022-10-26T03:46:51.690Z,77218.53
2022-10-26T03:49:18.467Z,77206.97
2022-10-26T03:51:45.125Z,77203.09
2022-10-26T03:54:11.798Z,77203.09
2022-10-26T03:56:38.515Z,77201.19
2022-10-26T03:59:05.269Z,77205.03
2022-10-26T04:01:31.985Z,77210.81
2022-10-26T04:03:58.796Z,77222.38
2022-10-26T04:06:26.467Z,77230.09
2022-10-26T04:08:58.173Z,77237.78
2022-10-26T04:11:24.925Z,77249.38
2022-10-26T04:13:51.672Z,77253.22
2022-10-26T04:16:18.512Z,77257.06
2022-10-26T04:18:46.170Z,77239.72
2022-10-26T04:21:12.917Z,77235.88
2022-10-26T04:23:40.081Z,77224.31
2022-10-26T04:26:06.834Z,77216.59
2022-10-26T04:28:33.582Z,77218.53
2022-10-26T04:31:00.313Z,77214.66
2022-10-26T04:33:27.011Z,77226.22
2022-10-26T04:35:59.104Z,77239.72
2022-10-26T04:38:25.734Z,77237.78
2022-10-26T04:40:52.488Z,77233.94
2022-10-26T04:43:19.236Z,77224.31
2022-10-26T04:45:45.865Z,77233.94
2022-10-26T04:48:13.826Z,77218.53
2022-10-26T04:50:41.169Z,77210.81
2022-10-26T04:53:10.109Z,77226.22
2022-10-26T04:55:37.192Z,77230.09
2022-10-26T04:58:04.748Z,77235.88
2022-10-26T05:00:32.941Z,77233.94
2022-10-26T05:03:04.766Z,77237.78
2022-10-26T05:05:34.797Z,77253.22
2022-10-26T05:08:01.680Z,77253.22
2022-10-26T05:10:28.683Z,77243.56
2022-10-26T05:12:57.019Z,77245.50
2022-10-26T05:15:24.040Z,77230.09
2022-10-26T05:18:05.553Z,77214.66
2022-10-26T05:20:35.095Z,77203.09
2022-10-26T05:23:06.894Z,77193.47
2022-10-26T05:25:36.758Z,77191.53
2022-10-26T05:28:06.390Z,77191.53
2022-10-26T05:30:33.030Z,77187.69
2022-10-26T05:33:03.162Z,77187.69
2022-10-26T05:35:30.278Z,77183.84
2022-10-26T05:37:57.237Z,77174.19
2022-10-26T05:40:24.557Z,77168.41
2022-10-26T05:42:51.657Z,77156.84
2022-10-26T05:45:18.728Z,77137.56
2022-10-26T05:47:46.456Z,77118.31
2022-10-26T05:50:14.245Z,77099.03
2022-10-26T05:52:45.955Z,77070.13
2022-10-26T05:55:15.265Z,77025.78
2022-10-26T05:57:42.615Z,77010.38
2022-10-26T06:00:18.762Z,76979.53
2022-10-26T06:02:48.443Z,76950.63
2022-10-26T06:05:22.976Z,76927.50
2022-10-26T06:07:50.560Z,76917.88
2022-10-26T06:10:18.972Z,76917.88
2022-10-26T06:12:46.265Z,76912.09
2022-10-26T06:15:21.218Z,76883.19
2022-10-26T06:18:06.204Z,76861.97
2022-10-26T06:21:01.777Z,76856.19
2022-10-26T06:23:52.993Z,76856.19
2022-10-26T06:26:40.729Z,76852.34
2022-10-26T06:29:44.786Z,76852.34
2022-10-26T06:32:12.009Z,76835.00
2022-10-26T06:34:45.335Z,76811.88
2022-10-26T06:37:13.225Z,76800.31
2022-10-26T06:39:44.355Z,76798.38
2022-10-26T06:42:11.922Z,76765.63
2022-10-26T06:44:39.293Z,76763.69
2022-10-26T06:47:31.289Z,76759.84
2022-10-26T06:50:06.657Z,76736.72
2022-10-26T06:52:41.252Z,76759.84
2022-10-26T06:55:14.346Z,76773.31
2022-10-26T06:57:42.210Z,76759.84
2022-10-26T07:00:20.059Z,76784.88
2022-10-26T07:02:47.125Z,76782.97
2022-10-26T07:05:14.386Z,76821.50
2022-10-26T07:07:46.502Z,76842.69
2022-10-26T07:10:14.819Z,76836.94
2022-10-26T07:12:41.584Z,76838.84
2022-10-26T07:17:46.380Z,76852.34
2022-10-26T07:20:13.806Z,76844.63
2022-10-26T07:22:40.798Z,76835.00
2022-10-26T07:25:08.080Z,76833.06
2022-10-26T07:27:35.304Z,76825.34
2022-10-26T07:30:02.364Z,76815.72
2022-10-26T07:32:29.746Z,76819.56
2022-10-26T07:34:56.726Z,76809.94
2022-10-26T07:37:23.346Z,76798.38
2022-10-26T07:39:50.021Z,76775.25
2022-10-26T07:42:16.759Z,76755.97
2022-10-26T07:44:43.358Z,76744.41
2022-10-26T07:47:10.024Z,76750.19
2022-10-26T07:49:36.681Z,76754.06
2022-10-26T07:52:03.522Z,76736.72
2022-10-26T07:54:30.181Z,76730.94
2022-10-26T07:56:56.900Z,76717.44
2022-10-26T07:59:23.711Z,76711.66
2022-10-26T08:01:50.437Z,76698.16
2022-10-26T08:04:17.517Z,76694.31
2022-10-26T08:06:44.237Z,76694.31
2022-10-26T08:09:10.898Z,76673.13
2022-10-26T08:11:37.516Z,76667.34
2022-10-26T08:14:04.492Z,76653.84
2022-10-26T08:16:31.775Z,76638.44
2022-10-26T08:18:58.390Z,76650.00
2022-10-26T08:21:36.292Z,76636.50
2022-10-26T08:24:06.404Z,76624.94
2022-10-26T08:26:33.205Z,76605.66
2022-10-26T08:28:59.886Z,76601.81
2022-10-26T08:31:26.499Z,76613.38
2022-10-26T08:33:53.135Z,76621.09
2022-10-26T08:36:27.438Z,76607.59
2022-10-26T08:38:54.601Z,76596.03
2022-10-26T08:41:53.100Z,76597.97
2022-10-26T08:44:27.533Z,76590.25
2022-10-26T08:47:05.027Z,76574.84
2022-10-26T08:49:54.737Z,76574.84
2022-10-26T08:52:30.353Z,76569.06
2022-10-26T08:55:00.877Z,76567.13
2022-10-26T08:57:41.981Z,76551.72
2022-10-26T09:00:16.934Z,76544.00
2022-10-26T09:02:43.569Z,76540.16
2022-10-26T09:05:17.808Z,76532.44
2022-10-26T09:08:01.609Z,76517.03
2022-10-26T09:10:31.367Z,76511.25
2022-10-26T09:13:28.994Z,76528.59
2022-10-26T09:16:13.881Z,76542.06
2022-10-26T09:19:15.722Z,76551.72
2022-10-26T09:22:26.663Z,76542.06
2022-10-26T09:24:56.041Z,76547.84
2022-10-26T09:27:30.432Z,76536.28
2022-10-26T09:30:03.722Z,76520.88
2022-10-26T09:32:44.615Z,76505.47
2022-10-26T09:35:26.948Z,76482.34
2022-10-26T09:38:01.295Z,76470.78
2022-10-26T09:40:34.098Z,76476.56
2022-10-26T09:43:20.860Z,76507.38
2022-10-26T09:45:54.250Z,76528.59
2022-10-26T09:48:58.768Z,76536.28
2022-10-26T09:51:27.254Z,76555.56
2022-10-26T09:53:56.123Z,76555.56
2022-10-26T09:56:23.225Z,76544.00
2022-10-26T09:59:07.975Z,76534.38
2022-10-26T10:01:38.603Z,76524.72
2022-10-26T10:04:16.806Z,76501.63
2022-10-26T10:06:45.479Z,76486.19
2022-10-26T10:09:23.094Z,76470.78
2022-10-26T10:11:56.615Z,76463.06
2022-10-26T10:14:39.043Z,76443.81
2022-10-26T10:17:21.200Z,76432.25
2022-10-26T10:19:48.265Z,76422.59
2022-10-26T10:22:14.845Z,76428.38
2022-10-26T10:24:43.665Z,76439.94
2022-10-26T10:27:15.143Z,76432.25
2022-10-26T10:29:45.224Z,76439.94
2022-10-26T10:32:23.299Z,76443.81
2022-10-26T10:34:52.152Z,76451.50
2022-10-26T10:37:24.040Z,76472.72
2022-10-26T10:39:51.075Z,76455.38
2022-10-26T10:42:22.850Z,76455.38
2022-10-26T10:44:55.668Z,76465.00
2022-10-26T10:47:31.956Z,76459.22
2022-10-26T10:50:06.937Z,76486.19
2022-10-26T10:52:36.056Z,76478.50
2022-10-26T10:55:19.575Z,76470.78
2022-10-26T10:58:04.979Z,76459.22
2022-10-26T11:00:37.090Z,76455.38
2022-10-26T11:03:37.905Z,76445.72
2022-10-26T11:06:19.000Z,76447.66
2022-10-26T11:08:50.749Z,76443.81
2022-10-26T11:11:34.813Z,76439.94
2022-10-26T11:14:17.695Z,76443.81
2022-10-26T11:16:51.627Z,76443.81
2022-10-26T11:19:24.354Z,76449.59
2022-10-26T11:21:55.416Z,76465.00
2022-10-26T11:24:25.098Z,76470.78
2022-10-26T11:27:07.883Z,76470.78
2022-10-26T11:29:39.404Z,76468.84
2022-10-26T11:32:19.797Z,76478.50
2022-10-26T11:34:50.959Z,76480.41
2022-10-26T11:37:25.793Z,76490.06
2022-10-26T11:40:03.174Z,76501.63
2022-10-26T11:43:09.936Z,76490.06
2022-10-26T11:45:44.094Z,76501.63
2022-10-26T11:48:23.719Z,76509.31
2022-10-26T11:50:55.627Z,76511.25
2022-10-26T11:53:28.580Z,76497.75
2022-10-26T11:55:58.508Z,76497.75
2022-10-26T11:58:28.215Z,76505.47
2022-10-26T12:01:16.105Z,76503.53
2022-10-26T12:03:48.370Z,76490.06
2022-10-26T12:06:20.314Z,76474.63
2022-10-26T12:08:55.558Z,76453.44
2022-10-26T12:11:50.590Z,76443.81
2022-10-26T12:14:31.610Z,76436.09
2022-10-26T12:17:04.745Z,76430.31
2022-10-26T12:19:47.133Z,76424.53
2022-10-26T12:22:17.989Z,76418.75
2022-10-26T12:24:47.553Z,76424.53
2022-10-26T12:27:51.929Z,76432.25
2022-10-26T12:30:26.187Z,76451.50
2022-10-26T12:32:58.761Z,76466.94
2022-10-26T12:35:31.964Z,76470.78
2022-10-26T12:38:00.580Z,76486.19
2022-10-26T12:40:34.576Z,76488.13
2022-10-26T12:43:14.631Z,76478.50
2022-10-26T12:49:52.082Z,76466.94
2022-10-26T12:52:28.355Z,76459.22
2022-10-26T12:55:17.318Z,76468.84
2022-10-26T12:58:04.259Z,76465.00
2022-10-26T13:00:41.320Z,76463.06
2022-10-26T13:03:54.084Z,76457.28
2022-10-26T13:06:40.281Z,76463.06
2022-10-26T13:09:19.822Z,76455.38
2022-10-26T13:11:57.256Z,76457.28
2022-10-26T13:14:48.965Z,76453.44
2022-10-26T13:18:14.479Z,76457.28
2022-10-26T13:24:29.611Z,76474.63
2022-10-26T13:27:08.263Z,76472.72
2022-10-26T13:30:15.290Z,76478.50
2022-10-26T13:32:55.025Z,76478.50
2022-10-26T13:51:46.939Z,76455.38
2022-10-26T13:54:43.745Z,76463.06
2022-10-26T13:57:17.029Z,76459.22
2022-10-26T13:59:45.505Z,76459.22
2022-10-26T14:02:28.016Z,76466.94
2022-10-26T14:04:59.834Z,76468.84
2022-10-26T14:07:56.864Z,76470.78
2022-10-26T14:10:56.671Z,76474.63
2022-10-26T14:13:30.016Z,76482.34
2022-10-26T14:15:58.614Z,76486.19
2022-10-26T14:18:48.529Z,76490.06
2022-10-26T14:21:23.331Z,76486.19
2022-10-26T14:23:56.191Z,76482.34
2022-10-26T14:26:24.341Z,76486.19
2022-10-26T14:29:01.810Z,76490.06
2022-10-26T14:31:30.652Z,76493.91
2022-10-26T14:33:59.415Z,76493.91
2022-10-26T14:36:34.163Z,76505.47
2022-10-26T14:39:15.047Z,76507.38
2022-10-26T14:41:42.279Z,76509.31
2022-10-26T14:44:23.293Z,76511.25
2022-10-26T14:46:57.715Z,76513.16
2022-10-26T14:49:30.707Z,76520.88
2022-10-26T14:52:00.452Z,76532.44
2022-10-26T14:54:58.408Z,76528.59
2022-10-26T14:57:53.592Z,76536.28
2022-10-26T15:00:52.396Z,76544.00
2022-10-26T15:04:04.183Z,76536.28
2022-10-26T15:07:39.384Z,76536.28
2022-10-26T15:10:35.617Z,76540.16
2022-10-26T15:13:31.890Z,76544.00
2022-10-26T15:16:10.555Z,76553.63
2022-10-26T15:18:39.149Z,76555.56
2022-10-26T15:21:37.129Z,76555.56
2022-10-26T15:24:23.123Z,76559.41
2022-10-26T15:26:50.431Z,76561.34
2022-10-26T15:29:40.744Z,76567.13
2022-10-26T15:32:40.948Z,76574.84
2022-10-26T15:35:25.792Z,76576.75
2022-10-26T15:37:55.614Z,76578.69
2022-10-26T15:42:54.533Z,76582.53
2022-10-26T15:45:29.873Z,76578.69
2022-10-26T15:47:59.406Z,76570.97
2022-10-26T15:50:32.439Z,76580.63
2022-10-26T15:53:20.253Z,76597.97
2022-10-26T15:56:15.887Z,76594.09
2022-10-26T15:59:08.602Z,76605.66
2022-10-26T16:01:57.159Z,76609.53
2022-10-26T16:04:26.154Z,76611.44
2022-10-26T16:06:53.364Z,76611.44
2022-10-26T16:09:19.972Z,76621.09
2022-10-26T16:11:46.693Z,76628.78
2022-10-26T16:14:13.392Z,76630.72
2022-10-26T16:16:40.157Z,76634.56
2022-10-26T16:19:29.128Z,76634.56
2022-10-26T16:21:53.528Z,76644.22
2022-10-26T16:24:20.487Z,76646.13
2022-10-26T16:26:47.582Z,76655.78
2022-10-26T16:29:14.474Z,76648.06
2022-10-26T16:31:41.144Z,76650.00
2022-10-26T16:34:07.746Z,76636.50
2022-10-26T16:36:34.617Z,76626.88
2022-10-26T16:41:29.022Z,76640.34
2022-10-26T16:43:56.478Z,76644.22
2022-10-26T16:46:23.466Z,76648.06
2022-10-26T16:48:50.953Z,76653.84
2022-10-26T16:51:23.357Z,76663.47
2022-10-26T16:53:52.076Z,76671.19
2022-10-26T16:56:21.578Z,76678.91
2022-10-26T16:58:48.968Z,76680.81
2022-10-26T17:01:20.479Z,76686.59
2022-10-26T17:03:49.067Z,76694.31
2022-10-26T17:06:16.705Z,76702.03
2022-10-26T17:08:43.751Z,76703.94
2022-10-26T17:11:13.148Z,76698.16
2022-10-26T17:13:40.950Z,76700.09
2022-10-26T17:16:18.686Z,76698.16
2022-10-26T17:18:47.198Z,76702.03
2022-10-26T17:21:15.479Z,76703.94
2022-10-26T17:23:42.113Z,76709.72
2022-10-26T17:26:12.643Z,76709.72
2022-10-26T17:28:39.609Z,76711.66
2022-10-26T17:31:08.910Z,76713.59
2022-10-26T17:33:37.439Z,76715.50
2022-10-26T17:36:06.160Z,76717.44
2022-10-26T17:38:34.380Z,76717.44
2022-10-26T17:41:02.293Z,76713.59
2022-10-26T17:43:33.239Z,76717.44
2022-10-26T17:46:05.603Z,76717.44
2022-10-26T17:48:32.608Z,76725.16
2022-10-26T17:50:59.896Z,76723.22
2022-10-26T17:53:26.573Z,76721.28
2022-10-26T17:56:02.930Z,76721.28
2022-10-26T17:58:29.421Z,76721.28
2022-10-26T18:00:56.140Z,76734.78
2022-10-26T18:03:22.619Z,76732.84
2022-10-26T18:05:49.835Z,76734.78
2022-10-26T18:08:16.401Z,76736.72
2022-10-26T18:10:46.981Z,76736.72
2022-10-26T18:13:13.492Z,76736.72
2022-10-26T18:15:40.014Z,76738.63
2022-10-26T18:18:06.966Z,76736.72
2022-10-26T18:20:34.085Z,76736.72
2022-10-26T18:23:01.259Z,76748.28
2022-10-26T18:25:28.260Z,76754.06
2022-10-26T18:27:55.278Z,76755.97
2022-10-26T18:30:22.587Z,76752.13
2022-10-26T18:32:50.423Z,76752.13
2022-10-26T18:35:17.776Z,76752.13
2022-10-26T18:37:44.567Z,76750.19
2022-10-26T18:40:11.517Z,76759.84
2022-10-26T18:42:38.402Z,76761.75
2022-10-26T18:45:05.171Z,76759.84
2022-10-26T18:47:32.359Z,76761.75
2022-10-26T18:49:59.230Z,76773.31
2022-10-26T18:52:28.702Z,76779.09
2022-10-26T18:54:55.354Z,76779.09
2022-10-26T18:57:26.908Z,76782.97
2022-10-26T18:59:54.914Z,76782.97
2022-10-26T19:02:22.960Z,76782.97
2022-10-26T19:04:51.602Z,76790.66
2022-10-26T19:07:18.184Z,76792.59
2022-10-26T19:09:44.673Z,76792.59
2022-10-26T19:12:11.394Z,76794.53
2022-10-26T19:14:37.886Z,76796.44
2022-10-26T19:17:04.347Z,76800.31
2022-10-26T19:19:30.805Z,76790.66
2022-10-26T19:21:59.347Z,76796.44
2022-10-26T19:24:26.005Z,76811.88
2022-10-26T19:26:54.044Z,76825.34
2022-10-26T19:29:20.706Z,76831.13
2022-10-26T19:31:50.159Z,76838.84
2022-10-26T19:34:17.300Z,76844.63
2022-10-26T19:36:46.183Z,76852.34
2022-10-26T19:39:14.240Z,76860.06
2022-10-26T19:41:41.317Z,76854.28
2022-10-26T19:44:09.730Z,76863.91
2022-10-26T19:46:36.509Z,76867.75
2022-10-26T19:49:03.100Z,76879.31
2022-10-26T19:51:30.683Z,76887.03
2022-10-26T19:54:03.972Z,76896.66
2022-10-26T19:56:31.433Z,76902.44
2022-10-26T19:58:58.133Z,76904.38
2022-10-26T20:01:25.193Z,76900.53
2022-10-26T20:03:51.907Z,76904.38
2022-10-26T20:06:18.791Z,76906.31
2022-10-26T20:08:46.735Z,76910.16
2022-10-26T20:11:15.764Z,76914.00
2022-10-26T20:13:43.722Z,76914.00
2022-10-26T20:16:10.715Z,76910.16
2022-10-26T20:18:37.502Z,76906.31
2022-10-26T20:21:10.315Z,76904.38
2022-10-26T20:23:37.313Z,76894.75
2022-10-26T20:26:04.090Z,76898.59
2022-10-26T20:28:30.955Z,76904.38
2022-10-26T20:30:59.558Z,76904.38
2022-10-26T20:33:29.376Z,76912.09
2022-10-26T20:35:57.086Z,76917.88
2022-10-26T20:38:23.698Z,76925.56
2022-10-26T20:40:53.887Z,76933.28
2022-10-26T20:43:20.842Z,76935.22
2022-10-26T20:45:47.517Z,76942.91
2022-10-26T20:48:14.589Z,76948.69
2022-10-26T20:50:43.369Z,76952.56
2022-10-26T20:53:09.831Z,76946.78
2022-10-26T20:55:40.191Z,76941.00
2022-10-26T20:58:06.693Z,76946.78
2022-10-26T21:00:37.699Z,76944.84
2022-10-26T21:03:04.190Z,76952.56
2022-10-26T21:05:33.954Z,76952.56
2022-10-26T21:08:01.596Z,76948.69
2022-10-26T21:10:29.182Z,76954.47
2022-10-26T21:12:55.657Z,76952.56
2022-10-26T21:15:22.273Z,76956.41
2022-10-26T21:17:49.016Z,76964.13
2022-10-26T21:20:15.953Z,76964.13
2022-10-26T21:22:42.413Z,76975.69
2022-10-26T21:25:09.185Z,76979.53
2022-10-26T21:27:35.738Z,76991.09
2022-10-26T21:30:02.350Z,77002.66
2022-10-26T21:32:28.830Z,77006.53
2022-10-26T21:34:55.408Z,77025.78
2022-10-26T21:37:24.833Z,77037.34
2022-10-26T21:39:51.329Z,77041.22
2022-10-26T21:42:17.833Z,77041.22
2022-10-26T21:44:44.318Z,77048.91
2022-10-26T21:47:11.152Z,77045.06
2022-10-26T21:49:37.776Z,77043.13
2022-10-26T21:52:04.485Z,77045.06
2022-10-26T21:54:30.943Z,77033.50
2022-10-26T21:56:57.625Z,77033.50
2022-10-26T21:59:24.164Z,77029.66
2022-10-26T22:01:50.869Z,77033.50
2022-10-26T22:04:17.507Z,77035.44
2022-10-26T22:06:44.065Z,77035.44
2022-10-26T22:09:10.543Z,77033.50
2022-10-26T22:11:37.135Z,77043.13
2022-10-26T22:14:03.710Z,77041.22
2022-10-26T22:16:31.748Z,77041.22
2022-10-26T22:19:01.934Z,77045.06
2022-10-26T22:21:32.199Z,77050.84
2022-10-26T22:23:58.678Z,77048.91
2022-10-26T22:26:25.359Z,77045.06
2022-10-26T22:28:53.197Z,77048.91
2022-10-26T22:31:21.324Z,77045.06
2022-10-26T22:33:51.627Z,77045.06
2022-10-26T22:36:18.500Z,77052.78
2022-10-26T22:38:45.142Z,77052.78
2022-10-26T22:41:11.758Z,77047.00
2022-10-26T22:43:38.450Z,77048.91
2022-10-26T22:46:06.206Z,77060.47
2022-10-26T22:48:33.131Z,77072.03
2022-10-26T22:50:59.733Z,77077.81
2022-10-26T22:53:26.282Z,77077.81
2022-10-26T22:55:52.957Z,77085.53
2022-10-26T22:58:19.492Z,77087.47
2022-10-26T23:00:46.014Z,77087.47
2022-10-26T23:03:12.505Z,77110.59
2022-10-26T23:05:45.032Z,77112.53
2022-10-26T23:08:11.520Z,77114.44
2022-10-26T23:10:38.027Z,77118.31
2022-10-26T23:13:04.764Z,77118.31
2022-10-26T23:15:31.217Z,77131.78
2022-10-26T23:17:57.702Z,77133.72
2022-10-26T23:20:24.320Z,77133.72
2022-10-26T23:22:51.063Z,77141.44
2022-10-26T23:25:17.650Z,77145.28
2022-10-26T23:27:44.280Z,77149.13
2022-10-26T23:30:11.065Z,77164.56
2022-10-26T23:32:37.525Z,77178.06
2022-10-26T23:35:04.242Z,77179.97
2022-10-26T23:37:30.695Z,77183.84
2022-10-26T23:39:57.163Z,77183.84
2022-10-26T23:42:23.653Z,77183.84
2022-10-26T23:44:50.143Z,77187.69
2022-10-26T23:47:16.886Z,77191.53
2022-10-26T23:49:43.385Z,77195.41
2022-10-26T23:52:09.857Z,77199.25
2022-10-26T23:54:36.454Z,77205.03
2022-10-26T23:57:03.197Z,77212.75
2022-10-26T23:59:29.769Z,77212.75
